Time;durP1;ratioP1;P1;durP2;ratioP2;P2;SDS_P1;SDS_P2;PMS_P1;PMS_P2;Temp;Humidity;BMP_temperature;BMP_pressure;BME280_temperature;BME280_humidity;BME280_pressure;Samples;Min_cycle;Max_cycle;Signal;HPM_P1;HPM_P2
2023/03/23 00:01:58;;;;;;;32.03;21.73;;;230.50;2252.80;;;;;;5073273;28;20044;-78
2023/03/23 00:04:25;;;;;;;34.83;24.52;;;230.40;2252.80;;;;;;5055056;28;20025;-76
2023/03/23 00:06:51;;;;;;;35.90;24.95;;;205.40;2252.80;;;;;;5076233;28;20099;-80
2023/03/23 00:09:17;;;;;;;37.40;24.77;;;205.20;2252.80;;;;;;5073824;28;20127;-83
2023/03/23 00:11:43;;;;;;;38.40;23.92;;;205.50;2252.80;;;;;;5094081;28;20039;-82
2023/03/23 00:14:13;;;;;;;38.58;27.65;;;205.50;2252.80;;;;;;5075976;28;20115;-82
2023/03/23 00:16:40;;;;;;;43.20;27.85;;;205.30;2252.80;;;;;;5076151;28;20050;-82
2023/03/23 00:19:14;;;;;;;42.95;30.75;;;205.40;2252.80;;;;;;5075825;28;20488;-83
2023/03/23 00:21:42;;;;;;;36.80;27.00;;;205.30;2252.80;;;;;;5094108;28;20028;-84
2023/03/23 00:24:11;;;;;;;37.20;23.73;;;205.20;2252.80;;;;;;5094300;28;20339;-82
2023/03/23 00:26:42;;;;;;;35.35;23.25;;;205.50;2252.80;;;;;;5075741;28;20120;-82
2023/03/23 00:29:14;;;;;;;37.63;26.60;;;205.50;2252.80;;;;;;5111038;28;20030;-79
2023/03/23 00:31:40;;;;;;;31.98;23.02;;;205.60;2252.80;;;;;;5095100;28;20052;-81
2023/03/23 00:34:06;;;;;;;33.28;22.98;;;205.50;2252.80;;;;;;5095617;28;20027;-81
2023/03/23 00:36:34;;;;;;;25.02;20.15;;;205.50;2252.80;;;;;;5095998;28;20520;-80
2023/03/23 00:39:02;;;;;;;32.55;21.70;;;205.50;2252.80;;;;;;5095724;28;20060;-80
2023/03/23 00:41:30;;;;;;;38.92;25.27;;;205.50;2252.80;;;;;;5095946;28;20031;-81
2023/03/23 00:43:57;;;;;;;31.98;23.00;;;205.50;2252.80;;;;;;5095972;28;20051;-81
2023/03/23 00:46:24;;;;;;;33.90;22.70;;;205.60;2252.80;;;;;;5095713;28;20024;-83
2023/03/23 00:48:51;;;;;;;33.38;23.00;;;205.50;2252.80;;;;;;5113861;28;20397;-83
2023/03/23 00:51:20;;;;;;;30.70;21.70;;;205.30;2252.80;;;;;;5095813;28;20024;-83
2023/03/23 00:53:46;;;;;;;32.90;21.38;;;205.40;2252.80;;;;;;5095652;28;20526;-82
2023/03/23 00:56:13;;;;;;;30.25;20.75;;;205.50;2252.80;;;;;;5095700;28;20024;-82
2023/03/23 00:58:39;;;;;;;29.80;20.98;;;205.40;2252.80;;;;;;5097080;28;20031;-81
2023/03/23 01:01:05;;;;;;;23.75;17.65;;;205.50;2252.80;;;;;;5116590;28;20824;-81
2023/03/23 01:03:32;;;;;;;21.55;16.15;;;205.50;2252.80;;;;;;5096017;28;20027;-82
2023/03/23 01:05:57;;;;;;;21.33;15.50;;;205.30;2252.80;;;;;;5095819;28;20028;-82
2023/03/23 01:08:24;;;;;;;23.00;15.70;;;205.20;2252.80;;;;;;5113573;28;20117;-80
2023/03/23 01:10:50;;;;;;;23.30;17.10;;;205.20;2252.80;;;;;;5095736;28;20053;-82
2023/03/23 01:13:16;;;;;;;24.20;15.70;;;205.10;2252.80;;;;;;5105738;28;20064;-78
2023/03/23 01:15:43;;;;;;;24.42;16.40;;;205.20;2252.80;;;;;;5074758;28;20024;-81
2023/03/23 01:18:09;;;;;;;27.67;18.23;;;205.20;2252.80;;;;;;5093388;28;20059;-80
2023/03/23 01:20:36;;;;;;;24.20;16.15;;;205.30;2252.80;;;;;;5079008;28;20074;-80
2023/03/23 01:23:02;;;;;;;26.92;17.30;;;205.30;2252.80;;;;;;5079163;28;20091;-80
2023/03/23 01:25:31;;;;;;;28.42;18.50;;;205.30;2252.80;;;;;;5078988;28;20055;-82
2023/03/23 01:27:57;;;;;;;32.30;17.50;;;205.30;2252.80;;;;;;5078608;28;20051;-82
2023/03/23 01:30:24;;;;;;;26.50;17.55;;;205.30;2252.80;;;;;;5078962;28;20024;-81
2023/03/23 01:32:50;;;;;;;24.70;18.73;;;205.30;2252.80;;;;;;5078473;28;20117;-82
2023/03/23 01:35:17;;;;;;;28.48;17.95;;;205.40;2252.80;;;;;;5078886;28;20451;-83
2023/03/23 01:37:43;;;;;;;28.77;19.02;;;205.60;2252.80;;;;;;5079011;28;20501;-82
2023/03/23 01:40:09;;;;;;;26.00;19.88;;;205.20;2252.80;;;;;;5079123;28;20024;-83
2023/03/23 01:42:37;;;;;;;26.50;16.98;;;205.30;2252.80;;;;;;5078782;28;20028;-82
2023/03/23 01:45:27;;;;;;;26.00;16.67;;;205.10;2252.80;;;;;;5096939;28;20372;-81
2023/03/23 01:48:22;;;;;;;46.17;20.52;;;205.20;2252.80;;;;;;5078884;28;20534;-84
2023/03/23 01:51:04;;;;;;;30.63;18.35;;;204.90;2252.80;;;;;;5064996;28;20510;-80
2023/03/23 01:53:40;;;;;;;27.67;18.02;;;205.10;2252.80;;;;;;5078682;28;20046;-82
2023/03/23 01:56:11;;;;;;;22.17;16.60;;;205.20;2252.80;;;;;;5081175;28;20475;-82
2023/03/23 01:58:38;;;;;;;24.17;16.92;;;205.00;2252.80;;;;;;5103968;28;20004;-82
2023/03/23 02:01:12;;;;;;;21.67;15.40;;;205.20;2252.80;;;;;;5103935;28;20034;-83
2023/03/23 02:03:41;;;;;;;18.38;13.98;;;205.10;2252.80;;;;;;5103568;28;20042;-82
2023/03/23 02:06:07;;;;;;;20.40;14.13;;;205.00;2252.80;;;;;;5103689;28;20043;-80
2023/03/23 02:08:34;;;;;;;16.63;13.65;;;205.00;2252.80;;;;;;5102397;28;20028;-80
2023/03/23 02:11:00;;;;;;;21.25;14.43;;;205.20;2252.80;;;;;;5080528;28;20031;-83
2023/03/23 02:13:27;;;;;;;22.17;13.98;;;205.30;2252.80;;;;;;5080731;28;20474;-81
2023/03/23 02:16:11;;;;;;;21.20;15.13;;;205.10;2252.80;;;;;;5079053;28;20533;-82
2023/03/23 02:19:15;;;;;;;21.83;15.45;;;205.10;2252.80;;;;;;5078265;28;20117;-80
2023/03/23 02:22:15;;;;;;;25.70;17.65;;;205.20;2252.80;;;;;;5078067;28;20028;-81
2023/03/23 02:25:32;;;;;;;22.33;14.93;;;205.10;2252.80;;;;;;5077862;28;20114;-81
2023/03/23 02:28:09;;;;;;;27.33;18.40;;;205.20;2252.80;;;;;;5023374;28;20047;-80
2023/03/23 02:30:35;;;;;;;25.52;18.40;;;205.10;2252.80;;;;;;5077493;28;20028;-81
2023/03/23 02:33:22;;;;;;;27.33;21.85;;;205.10;2252.80;;;;;;5056175;28;20052;-80
2023/03/23 02:36:03;;;;;;;29.77;21.90;;;204.90;2252.80;;;;;;5054409;28;20060;-82
2023/03/23 02:38:38;;;;;;;35.10;23.70;;;204.80;2252.80;;;;;;5054363;28;20029;-81
2023/03/23 02:41:04;;;;;;;28.58;20.67;;;204.80;2252.80;;;;;;5054397;28;20051;-81
2023/03/23 02:43:41;;;;;;;25.80;16.85;;;180.10;2252.80;;;;;;5055712;28;20021;-80
2023/03/23 02:46:09;;;;;;;29.73;21.48;;;180.10;2252.80;;;;;;5054192;28;20028;-79
2023/03/23 02:48:38;;;;;;;41.10;26.73;;;179.60;2252.80;;;;;;5054119;28;20029;-80
2023/03/23 02:51:05;;;;;;;38.50;24.50;;;179.80;2252.80;;;;;;5052675;28;20703;-80
2023/03/23 02:53:34;;;;;;;34.10;23.45;;;179.90;2252.80;;;;;;5054988;28;20031;-80
2023/03/23 02:56:02;;;;;;;39.45;25.65;;;179.90;2252.80;;;;;;5053232;28;20048;-83
2023/03/23 02:58:29;;;;;;;35.90;24.13;;;179.80;2252.80;;;;;;5053906;28;20025;-80
2023/03/23 03:00:56;;;;;;;34.88;21.65;;;179.70;2252.80;;;;;;5053877;28;20028;-79
2023/03/23 03:03:24;;;;;;;31.13;20.60;;;179.90;2252.80;;;;;;5055007;28;20372;-80
2023/03/23 03:06:20;;;;;;;24.83;17.35;;;180.00;2252.80;;;;;;5053764;28;20048;-81
2023/03/23 03:09:02;;;;;;;23.40;14.18;;;204.80;2252.80;;;;;;5053943;28;20021;-81
2023/03/23 03:11:29;;;;;;;22.70;16.67;;;204.80;2252.80;;;;;;5053699;28;20041;-81
2023/03/23 03:14:00;;;;;;;22.02;14.95;;;204.80;2252.80;;;;;;5054810;28;20091;-83
2023/03/23 03:16:36;;;;;;;20.63;14.60;;;204.90;2252.80;;;;;;5055043;28;20025;-80
2023/03/23 03:19:28;;;;;;;21.30;14.25;;;204.80;2252.80;;;;;;5053700;28;20404;-79
2023/03/23 03:22:00;;;;;;;19.98;14.15;;;204.80;2252.80;;;;;;5053495;28;20025;-80
2023/03/23 03:24:30;;;;;;;24.95;16.20;;;204.80;2252.80;;;;;;5053502;28;20464;-81
2023/03/23 03:26:59;;;;;;;19.88;14.85;;;180.10;2252.80;;;;;;5053177;28;20472;-79
2023/03/23 03:29:35;;;;;;;23.10;16.13;;;180.10;2252.80;;;;;;5053379;28;20035;-80
2023/03/23 03:32:05;;;;;;;23.70;15.70;;;204.80;2252.80;;;;;;5053041;28;20059;-80
2023/03/23 03:34:32;;;;;;;23.48;14.60;;;204.80;2252.80;;;;;;5054454;28;20033;-82
2023/03/23 03:36:59;;;;;;;26.15;17.38;;;204.90;2252.80;;;;;;5053164;28;20036;-79
2023/03/23 03:39:27;;;;;;;26.15;17.25;;;180.00;2252.80;;;;;;5053832;28;20032;-80
2023/03/23 03:41:52;;;;;;;19.77;13.98;;;179.90;2252.80;;;;;;5054433;28;20025;-80
2023/03/23 03:44:18;;;;;;;18.25;12.98;;;179.90;2252.80;;;;;;5053538;28;20079;-81
2023/03/23 03:46:44;;;;;;;18.77;14.23;;;179.80;2252.80;;;;;;5054047;28;20017;-81
2023/03/23 03:49:12;;;;;;;21.67;13.95;;;179.80;2252.80;;;;;;5052872;28;20025;-81
2023/03/23 03:51:39;;;;;;;19.60;14.15;;;179.70;2252.80;;;;;;5054058;28;20063;-81
2023/03/23 03:54:05;;;;;;;23.52;15.27;;;179.70;2252.80;;;;;;5054240;28;20036;-79
2023/03/23 03:56:34;;;;;;;24.90;16.63;;;179.40;2252.80;;;;;;5052894;28;20108;-82
2023/03/23 03:59:00;;;;;;;23.33;15.88;;;154.50;2252.80;;;;;;5052900;28;20372;-82
2023/03/23 04:01:26;;;;;;;21.92;15.55;;;179.40;2252.80;;;;;;5053654;28;20028;-79
2023/03/23 04:03:52;;;;;;;25.83;15.85;;;179.50;2252.80;;;;;;5053025;28;20024;-81
2023/03/23 04:06:18;;;;;;;19.88;14.73;;;179.50;2252.80;;;;;;5052566;28;20036;-81
2023/03/23 04:08:44;;;;;;;20.20;14.20;;;179.50;2252.80;;;;;;5052647;28;20025;-81
2023/03/23 04:11:12;;;;;;;21.75;13.63;;;179.30;2252.80;;;;;;5054189;28;20032;-81
2023/03/23 04:13:38;;;;;;;17.48;12.80;;;179.20;2252.80;;;;;;5052649;28;20123;-81
2023/03/23 04:16:05;;;;;;;20.85;13.65;;;;;;;;;;5052743;28;20029;-81
2023/03/23 04:18:33;;;;;;;22.75;16.38;;;;;;;;;;5053968;28;20372;-81
2023/03/23 04:21:01;;;;;;;26.85;16.42;;;154.00;2252.80;;;;;;5052463;28;20025;-80
2023/03/23 04:23:30;;;;;;;19.45;14.40;;;154.40;2252.80;;;;;;5053796;28;20094;-80
2023/03/23 04:25:57;;;;;;;15.43;12.98;;;154.30;2252.80;;;;;;5052627;28;20033;-80
2023/03/23 04:28:24;;;;;;;25.60;14.90;;;154.40;2252.80;;;;;;5050771;28;20048;-80
2023/03/23 04:30:54;;;;;;;18.50;15.02;;;154.10;2252.80;;;;;;5053532;28;20017;-79
2023/03/23 04:33:24;;;;;;;22.90;16.65;;;154.30;2252.80;;;;;;5071410;28;20048;-80
2023/03/23 04:35:52;;;;;;;23.33;16.48;;;154.10;2252.80;;;;;;5072670;28;20020;-79
2023/03/23 04:38:20;;;;;;;26.75;17.88;;;154.00;2252.80;;;;;;5072395;28;20020;-79
2023/03/23 04:40:47;;;;;;;22.27;14.55;;;154.10;2252.80;;;;;;5072374;28;20025;-80
2023/03/23 04:43:14;;;;;;;17.05;13.57;;;154.10;2252.80;;;;;;5072461;28;20361;-80
2023/03/23 04:45:45;;;;;;;22.35;14.98;;;154.10;2252.80;;;;;;5072298;28;20115;-80
2023/03/23 04:48:12;;;;;;;22.23;15.38;;;154.20;2252.80;;;;;;5073607;28;20032;-80
2023/03/23 04:50:38;;;;;;;21.65;15.65;;;154.40;2252.80;;;;;;5081756;28;20034;-78
2023/03/23 04:53:04;;;;;;;26.73;17.50;;;154.50;2252.80;;;;;;5092626;28;20468;-80
2023/03/23 04:55:38;;;;;;;26.40;16.23;;;154.50;2252.80;;;;;;5096954;28;20097;-79
2023/03/23 04:58:05;;;;;;;20.15;15.32;;;179.20;2252.80;;;;;;5096540;28;20063;-79
2023/03/23 05:00:33;;;;;;;19.70;13.63;;;154.50;2252.80;;;;;;5096561;28;20028;-80
2023/03/23 05:03:00;;;;;;;20.15;14.57;;;154.50;2252.80;;;;;;5096342;28;20024;-79
2023/03/23 05:05:27;;;;;;;18.58;15.43;;;179.20;2252.80;;;;;;5096300;28;20028;-80
2023/03/23 05:07:53;;;;;;;22.23;15.30;;;179.20;2252.80;;;;;;5097344;28;20495;-80
2023/03/23 05:10:19;;;;;;;21.67;15.07;;;179.40;2252.80;;;;;;5096321;28;20031;-81
2023/03/23 05:12:45;;;;;;;23.05;16.08;;;179.40;2252.80;;;;;;5096059;28;20032;-79
2023/03/23 05:15:13;;;;;;;23.80;17.38;;;154.50;2252.80;;;;;;5096204;28;20165;-80
2023/03/23 05:17:40;;;;;;;20.33;15.43;;;154.50;2252.80;;;;;;5096205;28;20537;-78
2023/03/23 05:20:11;;;;;;;22.40;18.00;;;179.30;2252.80;;;;;;5095981;28;20472;-78
2023/03/23 05:22:38;;;;;;;26.33;16.25;;;179.30;2252.80;;;;;;5096081;28;20034;-79
2023/03/23 05:25:05;;;;;;;22.90;13.98;;;179.50;2252.80;;;;;;5095958;28;20028;-80
2023/03/23 05:27:32;;;;;;;22.38;15.55;;;179.40;2252.80;;;;;;5095721;28;20024;-79
2023/03/23 05:29:59;;;;;;;20.63;16.60;;;179.40;2252.80;;;;;;5095919;28;20483;-79
2023/03/23 05:32:29;;;;;;;22.30;17.15;;;179.40;2252.80;;;;;;5095424;28;20065;-80
2023/03/23 05:34:59;;;;;;;23.33;16.45;;;179.50;2252.80;;;;;;5095984;28;20027;-80
2023/03/23 05:37:28;;;;;;;24.08;15.48;;;179.50;2252.80;;;;;;5095582;28;20062;-81
2023/03/23 05:39:55;;;;;;;23.40;16.02;;;179.40;2252.80;;;;;;5095688;28;20090;-79
2023/03/23 05:42:25;;;;;;;26.48;18.67;;;179.60;2252.80;;;;;;5095645;28;20144;-80
2023/03/23 05:44:50;;;;;;;29.73;19.50;;;179.70;2252.80;;;;;;5095664;28;20024;-80
2023/03/23 05:47:17;;;;;;;29.40;18.08;;;179.70;2252.80;;;;;;5095323;28;20042;-79
2023/03/23 05:49:42;;;;;;;24.73;18.73;;;179.30;2252.80;;;;;;5095739;28;20020;-80
2023/03/23 05:52:08;;;;;;;24.88;18.23;;;179.40;2252.80;;;;;;5096670;28;20436;-81
2023/03/23 05:54:35;;;;;;;26.63;20.27;;;179.50;2252.80;;;;;;5096360;28;20019;-80
2023/03/23 05:57:01;;;;;;;23.20;17.88;;;179.40;2252.80;;;;;;5095349;28;20039;-81
2023/03/23 05:59:27;;;;;;;23.33;16.83;;;179.40;2252.80;;;;;;5095434;28;20035;-79
2023/03/23 06:01:57;;;;;;;21.33;16.05;;;179.20;2252.80;;;;;;5095250;28;20032;-80
2023/03/23 06:04:24;;;;;;;22.40;15.80;;;179.40;2252.80;;;;;;5094703;28;20470;-80
2023/03/23 06:06:53;;;;;;;21.52;15.70;;;179.40;2252.80;;;;;;5095626;28;20024;-80
2023/03/23 06:09:20;;;;;;;22.75;16.50;;;179.50;2252.80;;;;;;5095011;28;20074;-79
2023/03/23 06:11:47;;;;;;;22.02;14.95;;;179.50;2252.80;;;;;;5095154;28;20043;-80
2023/03/23 06:14:13;;;;;;;20.85;15.05;;;179.60;2252.80;;;;;;5095010;28;20376;-79
2023/03/23 06:16:39;;;;;;;20.35;14.23;;;179.60;2252.80;;;;;;5094826;28;20032;-79
2023/03/23 06:19:05;;;;;;;23.73;15.52;;;179.60;2252.80;;;;;;5095097;28;20035;-80
2023/03/23 06:21:31;;;;;;;24.08;16.00;;;179.50;2252.80;;;;;;5096220;28;20035;-78
2023/03/23 06:23:59;;;;;;;20.77;15.63;;;179.70;2252.80;;;;;;5096547;28;20023;-79
2023/03/23 06:26:33;;;;;;;23.10;16.45;;;179.60;2252.80;;;;;;5095821;28;20141;-80
2023/03/23 06:28:59;;;;;;;25.40;15.57;;;179.70;2252.80;;;;;;5094857;28;20028;-79
2023/03/23 06:31:26;;;;;;;20.45;15.27;;;179.90;2252.80;;;;;;5094393;28;20085;-78
2023/03/23 06:33:52;;;;;;;24.50;16.10;;;179.90;2252.80;;;;;;5094827;28;20028;-79
2023/03/23 06:36:19;;;;;;;28.05;16.70;;;179.90;2252.80;;;;;;5094600;28;20043;-79
2023/03/23 06:38:44;;;;;;;27.02;17.05;;;180.00;2252.80;;;;;;5095983;28;20021;-80
2023/03/23 06:41:11;;;;;;;24.05;16.92;;;180.10;2252.80;;;;;;5094525;28;20027;-80
2023/03/23 06:43:39;;;;;;;24.27;17.15;;;204.90;2252.80;;;;;;5093926;28;20028;-78
2023/03/23 06:46:06;;;;;;;23.38;17.73;;;205.00;2252.80;;;;;;5094325;28;20460;-80
2023/03/23 06:48:32;;;;;;;27.52;18.10;;;;;;;;;;5094303;28;20035;-82
2023/03/23 06:50:58;;;;;;;23.40;17.08;;;205.20;2252.80;;;;;;5094120;28;20108;-82
2023/03/23 06:53:24;;;;;;;23.15;16.50;;;205.30;2252.80;;;;;;5095414;28;20090;-82
2023/03/23 06:55:50;;;;;;;21.13;16.02;;;205.40;2252.80;;;;;;5094296;28;20115;-83
2023/03/23 06:58:16;;;;;;;21.63;15.15;;;205.50;2252.80;;;;;;5093913;28;20028;-83
2023/03/23 07:00:41;;;;;;;19.55;15.23;;;205.60;2252.80;;;;;;5093984;28;20039;-84
2023/03/23 07:03:08;;;;;;;19.65;14.23;;;205.60;2252.80;;;;;;5094148;28;20040;-82
2023/03/23 07:05:35;;;;;;;20.30;15.40;;;205.70;2252.80;;;;;;5093726;28;20035;-82
2023/03/23 07:08:02;;;;;;;22.27;14.40;;;230.40;2252.80;;;;;;5093776;28;20460;-83
2023/03/23 07:10:28;;;;;;;20.63;13.98;;;230.50;2252.80;;;;;;5094973;28;20107;-82
2023/03/23 07:12:54;;;;;;;20.77;16.63;;;230.70;2252.80;;;;;;5093771;28;20063;-83
2023/03/23 07:15:20;;;;;;;19.75;15.10;;;230.70;2252.80;;;;;;5093194;28;20060;-82
2023/03/23 07:17:47;;;;;;;24.92;17.67;;;230.90;2252.80;;;;;;5094656;28;20039;-83
2023/03/23 07:20:14;;;;;;;19.05;14.55;;;231.00;2252.80;;;;;;5093698;28;20483;-83
2023/03/23 07:22:40;;;;;;;20.48;14.88;;;230.90;2252.80;;;;;;5094810;28;20025;-83
2023/03/23 07:25:07;;;;;;;31.98;23.00;;;231.20;2252.80;;;;;;5093542;28;20032;-80
2023/03/23 07:27:33;;;;;;;27.23;22.50;;;231.20;2252.80;;;;;;5093643;28;20033;-81
2023/03/23 07:29:59;;;;;;;19.60;15.50;;;256.10;2252.80;;;;;;5093511;28;20024;-80
2023/03/23 07:32:25;;;;;;;21.08;14.95;;;256.20;2252.80;;;;;;5107870;28;20052;-80
2023/03/23 07:34:51;;;;;;;17.92;13.48;;;256.20;2252.80;;;;;;5097080;28;20451;-81
2023/03/23 07:37:17;;;;;;;21.83;13.70;;;256.50;2252.80;;;;;;5096846;28;20024;-79
2023/03/23 07:39:43;;;;;;;18.55;12.60;;;256.50;2252.80;;;;;;5115264;28;20023;-80
2023/03/23 07:42:09;;;;;;;20.42;14.68;;;256.70;2252.80;;;;;;5114805;28;20054;-79
2023/03/23 07:44:35;;;;;;;19.02;12.82;;;256.80;2252.80;;;;;;5096801;28;20023;-78
2023/03/23 07:47:01;;;;;;;20.25;12.75;;;256.90;2252.80;;;;;;5114743;28;20513;-76
2023/03/23 07:49:27;;;;;;;20.45;14.38;;;281.60;2278.40;;;;;;5114695;28;20027;-78
2023/03/23 07:51:53;;;;;;;17.35;13.70;;;281.80;2278.40;;;;;;5096548;28;20027;-77
2023/03/23 07:54:19;;;;;;;17.75;13.27;;;281.90;2278.40;;;;;;5114631;28;20442;-78
2023/03/23 07:56:45;;;;;;;18.90;14.60;;;282.00;2278.40;;;;;;5096494;28;20054;-80
2023/03/23 07:59:12;;;;;;;28.38;15.52;;;282.00;2278.40;;;;;;5096659;28;20024;-79
2023/03/23 08:01:38;;;;;;;18.40;14.10;;;282.10;2278.40;;;;;;5096309;28;20462;-78
2023/03/23 08:04:05;;;;;;;19.52;14.55;;;282.20;2278.40;;;;;;5096178;28;20122;-78
2023/03/23 08:06:34;;;;;;;20.20;15.80;;;282.40;2278.40;;;;;;5074816;28;20042;-78
2023/03/23 08:09:00;;;;;;;25.40;16.95;;;307.30;2304.00;;;;;;5076008;28;20021;-81
2023/03/23 08:11:26;;;;;;;25.40;17.67;;;307.40;2304.00;;;;;;5075813;28;20035;-81
2023/03/23 08:13:52;;;;;;;23.70;17.75;;;307.50;2304.00;;;;;;5075628;28;20024;-80
2023/03/23 08:16:19;;;;;;;29.02;18.00;;;307.70;2304.00;;;;;;5075987;28;20024;-80
2023/03/23 08:18:46;;;;;;;25.40;19.00;;;307.80;2304.00;;;;;;5075780;28;20052;-77
2023/03/23 08:21:13;;;;;;;25.00;20.00;;;307.90;2304.00;;;;;;5075411;28;20460;-79
2023/03/23 08:23:38;;;;;;;28.98;21.05;;;308.00;2304.00;;;;;;5094066;28;20028;-81
2023/03/23 08:26:09;;;;;;;30.42;20.95;;;308.00;2304.00;;;;;;5093826;28;20035;-80
2023/03/23 08:28:36;;;;;;;29.23;20.95;;;332.80;2329.60;;;;;;5066770;28;20069;-82
2023/03/23 08:31:10;;;;;;;25.60;20.65;;;332.90;2329.60;;;;;;5075409;28;20111;-80
2023/03/23 08:33:37;;;;;;;25.98;20.17;;;333.00;2329.60;;;;;;5074927;28;20118;-80
2023/03/23 08:36:04;;;;;;;24.65;19.50;;;333.00;2329.60;;;;;;5075177;28;20028;-77
2023/03/23 08:38:30;;;;;;;32.28;24.13;;;333.20;2329.60;;;;;;5093450;28;20375;-79
2023/03/23 08:41:01;;;;;;;25.50;19.77;;;333.40;2329.60;;;;;;5078151;28;20030;-79
2023/03/23 08:43:27;;;;;;;25.73;18.75;;;333.40;2329.60;;;;;;5082339;28;20064;-80
2023/03/23 08:45:53;;;;;;;22.65;18.52;;;333.40;2329.60;;;;;;5087106;28;20066;-80
2023/03/23 08:48:19;;;;;;;23.40;17.58;;;333.30;2329.60;;;;;;5075175;28;20047;-79
2023/03/23 08:50:45;;;;;;;29.38;19.33;;;333.40;2329.60;;;;;;5071182;28;20020;-80
2023/03/23 08:53:11;;;;;;;26.50;22.33;;;;;;;;;;5075549;28;20043;-81
2023/03/23 08:55:38;;;;;;;26.23;20.77;;;;;;;;;;5075604;28;20016;-77
2023/03/23 08:58:04;;;;;;;25.40;18.83;;;358.80;2329.60;;;;;;5075634;28;20127;-77
2023/03/23 09:00:30;;;;;;;20.23;16.48;;;358.70;2329.60;;;;;;5075662;28;20081;-80
2023/03/23 09:02:56;;;;;;;23.85;17.75;;;358.80;2329.60;;;;;;5075575;28;20406;-81
2023/03/23 09:05:25;;;;;;;19.88;16.98;;;358.80;2329.60;;;;;;5075453;28;20024;-81
2023/03/23 09:07:52;;;;;;;22.75;17.70;;;358.90;2329.60;;;;;;5075438;28;20024;-77
2023/03/23 09:10:19;;;;;;;23.27;18.85;;;359.00;2329.60;;;;;;5075413;28;20157;-80
2023/03/23 09:12:46;;;;;;;21.52;17.95;;;359.00;2329.60;;;;;;5075306;28;20480;-79
2023/03/23 09:15:16;;;;;;;22.98;17.67;;;359.10;2329.60;;;;;;5075090;28;20105;-81
2023/03/23 09:17:47;;;;;;;22.48;18.23;;;359.20;2329.60;;;;;;5075262;28;20089;-79
2023/03/23 09:20:15;;;;;;;22.50;18.13;;;359.20;2329.60;;;;;;5075369;28;20020;-81
2023/03/23 09:22:43;;;;;;;25.17;20.10;;;359.30;2329.60;;;;;;5075262;28;20032;-78
2023/03/23 09:25:11;;;;;;;23.67;19.75;;;359.30;2329.60;;;;;;5093176;28;20073;-77
2023/03/23 09:27:39;;;;;;;22.17;19.17;;;384.10;2329.60;;;;;;5075003;28;20077;-81
2023/03/23 09:30:07;;;;;;;25.08;17.92;;;384.40;2329.60;;;;;;5075147;28;20123;-80
2023/03/23 09:32:34;;;;;;;24.77;17.60;;;384.40;2329.60;;;;;;5074833;28;20048;-79
2023/03/23 09:35:01;;;;;;;25.88;17.45;;;384.50;2329.60;;;;;;5075283;28;20099;-82
2023/03/23 09:37:28;;;;;;;24.95;19.52;;;384.70;2329.60;;;;;;5075135;28;20045;-79
2023/03/23 09:39:54;;;;;;;39.88;33.00;;;384.90;2329.60;;;;;;5077016;28;20396;-80
2023/03/23 09:42:44;;;;;;;49.95;37.95;;;384.90;2329.60;;;;;;5078561;28;20024;-80
2023/03/23 09:45:21;;;;;;;47.40;38.75;;;384.90;2329.60;;;;;;5078380;28;20027;-78
2023/03/23 09:48:03;;;;;;;25.98;20.15;;;384.90;2329.60;;;;;;5079508;28;20379;-79
2023/03/23 09:50:32;;;;;;;25.13;20.17;;;384.90;2329.60;;;;;;5078932;28;20081;-79
2023/03/23 09:53:05;;;;;;;35.08;27.95;;;384.90;2329.60;;;;;;5096791;28;20367;-81
2023/03/23 09:55:31;;;;;;;20.95;16.42;;;409.70;2355.20;;;;;;5078370;28;20451;-78
2023/03/23 09:57:59;;;;;;;19.00;16.15;;;409.80;2355.20;;;;;;5078391;28;20038;-79
2023/03/23 10:00:47;;;;;;;18.23;15.27;;;410.00;2355.20;;;;;;5077927;28;20035;-79
2023/03/23 10:03:24;;;;;;;15.95;13.35;;;410.10;2355.20;;;;;;5077333;28;20028;-79
2023/03/23 10:05:53;;;;;;;17.60;13.60;;;410.20;2355.20;;;;;;5077917;28;20020;-78
2023/03/23 10:08:22;;;;;;;17.55;13.57;;;410.40;2355.20;;;;;;5078094;28;20024;-80
2023/03/23 10:10:48;;;;;;;17.92;11.65;;;410.30;2355.20;;;;;;5078184;28;20069;-80
2023/03/23 10:13:24;;;;;;;14.07;10.85;;;410.40;2355.20;;;;;;5096124;28;20028;-80
2023/03/23 10:15:51;;;;;;;21.83;17.65;;;410.40;2355.20;;;;;;5077384;28;20023;-79
2023/03/23 10:18:30;;;;;;;16.35;14.50;;;410.50;2355.20;;;;;;5078002;28;20073;-79
2023/03/23 10:21:01;;;;;;;16.83;12.85;;;435.20;2355.20;;;;;;5096291;28;20485;-79
2023/03/23 10:23:55;;;;;;;34.35;24.60;;;435.50;2355.20;;;;;;5096264;28;20036;-79
2023/03/23 10:26:24;;;;;;;13.18;10.88;;;;;;;;;;5077697;28;20062;-80
2023/03/23 10:28:56;;;;;;;18.77;15.27;;;435.80;2304.00;;;;;;5095976;28;20030;-79
2023/03/23 10:31:30;;;;;;;15.07;12.07;;;435.90;2355.20;;;;;;5077491;28;20052;-80
2023/03/23 10:34:01;;;;;;;11.38;9.88;;;436.10;2329.60;;;;;;5077696;28;20050;-80
2023/03/23 10:36:35;;;;;;;22.97;14.47;;;436.10;2252.80;;;;;;5077964;28;20114;-79
2023/03/23 10:39:19;;;;;;;31.85;19.95;;;460.80;2252.80;;;;;;5114019;28;20063;-79
2023/03/23 10:41:45;;;;;;;23.00;14.98;;;461.10;2252.80;;;;;;5103265;28;20011;-79
2023/03/23 10:44:21;;;;;;;35.85;25.05;;;461.20;2329.60;;;;;;5102871;28;20024;-76
2023/03/23 10:47:04;;;;;;;40.15;24.88;;;461.40;2201.60;;;;;;5097120;28;20073;-79
2023/03/23 10:49:33;;;;;;;;;;;461.50;2176.00;;;;;;5079049;28;20020;-78
2023/03/23 10:52:20;;;;;;;27.98;19.00;;;486.50;2176.00;;;;;;5077563;28;20010;-79
2023/03/23 10:55:08;;;;;;;15.15;11.55;;;486.70;2176.00;;;;;;5077320;28;20166;-80
2023/03/23 10:57:36;;;;;;;25.13;19.40;;;486.90;2073.60;;;;;;5077345;28;20117;-80
2023/03/23 11:00:06;;;;;;;13.10;10.45;;;;;;;;;;5076821;28;20474;-79
2023/03/23 11:02:42;;;;;;;8.70;7.03;;;487.10;2073.60;;;;;;5077044;28;20374;-79
2023/03/23 11:05:18;;;;;;;12.02;8.85;;;487.00;2073.60;;;;;;5076948;28;20121;-80
2023/03/23 11:07:53;;;;;;;11.02;8.07;;;487.20;1996.80;;;;;;5077059;28;20383;-80
2023/03/23 11:10:38;;;;;;;9.45;7.60;;;512.00;1996.80;;;;;;5076938;28;20028;-80
2023/03/23 11:13:09;;;;;;;15.23;12.57;;;512.20;1971.20;;;;;;5076553;28;20467;-80
2023/03/23 11:15:39;;;;;;;10.40;8.80;;;512.40;2048.00;;;;;;5076927;28;20028;-81
2023/03/23 11:18:17;;;;;;;11.60;8.07;;;512.70;1971.20;;;;;;5076712;28;20038;-80
2023/03/23 11:20:48;;;;;;;8.98;6.20;;;512.80;1920.00;;;;;;5076751;28;20046;-80
2023/03/23 11:23:22;;;;;;;12.93;8.63;;;;;;;;;;5076631;28;20089;-79
2023/03/23 11:25:58;;;;;;;14.65;10.30;;;538.00;1920.00;;;;;;5076744;28;20038;-80
2023/03/23 11:28:37;;;;;;;9.05;6.70;;;538.20;1920.00;;;;;;5076708;28;20463;-80
2023/03/23 11:31:06;;;;;;;8.40;6.60;;;538.30;1868.80;;;;;;5076337;28;20024;-80
2023/03/23 11:33:57;;;;;;;10.00;7.53;;;538.50;1868.80;;;;;;5076280;28;20485;-79
2023/03/23 11:36:36;;;;;;;9.35;6.68;;;563.30;1868.80;;;;;;5076567;28;20038;-81
2023/03/23 11:39:04;;;;;;;6.70;5.43;;;563.40;1868.80;;;;;;5094597;28;20031;-79
2023/03/23 11:41:34;;;;;;;10.82;5.65;;;563.50;1792.00;;;;;;5076454;28;20077;-81
2023/03/23 11:44:09;;;;;;;12.00;7.50;;;563.60;1792.00;;;;;;5094780;28;20024;-81
2023/03/23 11:46:56;;;;;;;16.35;13.60;;;563.50;1792.00;;;;;;5076476;28;20024;-81
2023/03/23 11:49:57;;;;;;;9.10;6.10;;;564.00;1817.60;;;;;;5075300;28;20111;-79
2023/03/23 11:52:54;;;;;;;8.52;5.82;;;564.10;1792.00;;;;;;5057340;28;20093;-80
2023/03/23 11:55:23;;;;;;;8.30;6.30;;;;;;;;;;5092675;28;20520;-80
2023/03/23 11:57:49;;;;;;;11.07;6.80;;;588.90;1766.40;;;;;;5097666;28;20413;-81
2023/03/23 12:00:19;;;;;;;10.23;5.15;;;589.20;1740.80;;;;;;5088429;28;20656;-79
2023/03/23 12:03:20;;;;;;;9.35;6.95;;;589.00;1715.20;;;;;;5074436;28;20123;-80
2023/03/23 12:06:02;;;;;;;9.65;7.45;;;589.10;1766.40;;;;;;5074451;28;20020;-80
2023/03/23 12:08:40;;;;;;;7.15;4.82;;;589.40;1715.20;;;;;;5075578;28;20028;-82
2023/03/23 12:11:15;;;;;;;5.78;4.55;;;;;;;;;;5075717;28;20024;-80
2023/03/23 12:13:55;;;;;;;6.88;5.03;;;589.30;1664.00;;;;;;5075866;28;20028;-80
2023/03/23 12:16:41;;;;;;;8.77;4.97;;;589.60;1664.00;;;;;;5075697;28;20542;-79
2023/03/23 12:19:10;;;;;;;8.15;5.90;;;589.40;1638.40;;;;;;5075893;28;20031;-81
2023/03/23 12:21:50;;;;;;;7.95;5.03;;;589.70;1664.00;;;;;;5075772;28;20078;-79